createdAt,value
2017-11-03T00:00:14.791Z,32.5
2017-11-03T00:01:14.863Z,32.5
2017-11-03T00:02:14.977Z,32.5
2017-11-03T00:03:14.174Z,32.5
2017-11-03T00:04:15.076Z,32.5
2017-11-03T00:05:14.329Z,32.5
2017-11-03T00:06:14.339Z,32.5
2017-11-03T00:07:14.159Z,32.5
2017-11-03T00:08:14.392Z,32.5
2017-11-03T00:09:15.523Z,32.5
2017-11-03T00:10:15.546Z,32.5
2017-11-03T00:11:15.580Z,32.5
2017-11-03T00:12:15.337Z,32.5
2017-11-03T00:13:15.393Z,32.5
2017-11-03T00:14:15.707Z,32.5
2017-11-03T00:15:15.527Z,32.5
2017-11-03T00:16:15.495Z,32.5
2017-11-03T00:17:15.782Z,32.5
2017-11-03T00:18:14.706Z,32.5
2017-11-03T00:19:14.602Z,32.5
2017-11-03T00:20:15.789Z,32.5
2017-11-03T00:21:15.862Z,32.5
2017-11-03T00:22:14.874Z,32.5
2017-11-03T00:23:16.008Z,32.5
2017-11-03T00:24:14.956Z,32.5
2017-11-03T00:25:16.242Z,32.5
2017-11-03T00:26:16.311Z,32.5
2017-11-03T00:27:15.085Z,32.5
2017-11-03T00:28:16.218Z,32.5
2017-11-03T00:29:15.479Z,32.5
2017-11-03T00:30:15.347Z,32.5
2017-11-03T00:31:15.601Z,32.5
2017-11-03T00:32:16.774Z,32.5
2017-11-03T00:33:16.753Z,32.6
2017-11-03T00:34:15.593Z,32.6
2017-11-03T00:35:16.620Z,32.5
2017-11-03T00:36:15.790Z,32.5
2017-11-03T00:37:15.856Z,32.5
2017-11-03T00:38:15.733Z,32.5
2017-11-03T00:39:16.810Z,32.5
2017-11-03T00:40:16.025Z,32.5
2017-11-03T00:41:16.990Z,32.5
2017-11-03T00:42:17.025Z,32.5
2017-11-03T00:43:17.067Z,32.5
2017-11-03T00:44:16.274Z,32.6
2017-11-03T00:45:16.249Z,32.6
2017-11-03T00:46:17.136Z,32.6
2017-11-03T00:47:16.069Z,32.6
2017-11-03T00:48:16.404Z,32.6
2017-11-03T00:49:16.451Z,32.6
2017-11-03T00:50:16.357Z,32.6
2017-11-03T00:51:17.385Z,32.6
2017-11-03T00:52:16.471Z,32.6
2017-11-03T00:53:16.657Z,32.6
2017-11-03T00:54:17.534Z,32.6
2017-11-03T00:55:17.606Z,32.6
2017-11-03T00:56:17.686Z,32.5
2017-11-03T00:57:17.696Z,32.6
2017-11-03T00:58:16.823Z,32.5
2017-11-03T00:59:18.021Z,32.6
2017-11-03T01:00:16.986Z,32.6
2017-11-03T01:01:16.884Z,32.6
2017-11-03T01:02:17.144Z,32.6
2017-11-03T01:03:16.970Z,32.6
2017-11-03T01:04:18.346Z,32.6
2017-11-03T01:05:18.191Z,32.6
2017-11-03T01:06:17.339Z,32.6
2017-11-03T01:07:17.256Z,32.6
2017-11-03T01:08:18.377Z,32.6
2017-11-03T01:09:18.391Z,32.6
2017-11-03T01:10:18.660Z,32.6
2017-11-03T01:11:17.443Z,32.6
2017-11-03T01:12:17.721Z,32.6
2017-11-03T01:13:18.887Z,32.6
2017-11-03T01:14:17.856Z,32.6
2017-11-03T01:15:17.884Z,32.6
2017-11-03T01:16:19.044Z,32.6
2017-11-03T01:17:18.003Z,32.6
2017-11-03T01:18:19.172Z,32.6
2017-11-03T01:19:18.938Z,32.6
2017-11-03T01:20:19.067Z,32.6
2017-11-03T01:21:18.084Z,32.6
2017-11-03T01:22:18.079Z,32.6
2017-11-03T01:23:19.378Z,32.6
2017-11-03T01:24:19.452Z,32.6
2017-11-03T01:25:18.161Z,32.6
2017-11-03T01:26:19.543Z,32.6
2017-11-03T01:27:18.458Z,32.5
2017-11-03T01:28:19.405Z,32.6
2017-11-03T01:29:18.411Z,32.6
2017-11-03T01:30:18.661Z,32.5
2017-11-03T01:31:18.553Z,32.5
2017-11-03T01:32:19.627Z,32.5
2017-11-03T01:33:18.831Z,32.6
2017-11-03T01:34:18.688Z,32.6
2017-11-03T01:35:19.970Z,32.6
2017-11-03T01:36:20.122Z,32.6
2017-11-03T01:37:18.955Z,32.6
2017-11-03T01:38:18.800Z,32.6
2017-11-03T01:39:20.008Z,32.6
2017-11-03T01:40:20.054Z,32.6
2017-11-03T01:41:20.345Z,32.6
2017-11-03T01:42:19.186Z,32.6
2017-11-03T01:43:20.465Z,32.6
2017-11-03T01:44:20.506Z,32.6
2017-11-03T01:45:20.251Z,32.6
2017-11-03T01:46:20.571Z,32.6
2017-11-03T01:47:19.539Z,32.6
2017-11-03T01:48:19.572Z,32.6
2017-11-03T01:49:20.670Z,32.6
2017-11-03T01:50:19.516Z,32.6
2017-11-03T01:51:19.683Z,32.6
2017-11-03T01:52:20.896Z,32.6
2017-11-03T01:53:19.863Z,32.6
2017-11-03T01:54:19.755Z,32.6
2017-11-03T01:55:20.906Z,32.6
2017-11-03T01:56:19.847Z,32.6
2017-11-03T01:57:20.991Z,32.6
2017-11-03T01:58:20.158Z,32.6
2017-11-03T01:59:21.282Z,32.6
2017-11-03T02:00:22.220Z,32.6
2017-11-03T02:01:20.140Z,32.6
2017-11-03T02:02:20.173Z,32.6
2017-11-03T02:03:21.399Z,32.6
2017-11-03T02:04:20.478Z,32.6
2017-11-03T02:05:20.377Z,32.6
2017-11-03T02:06:20.634Z,32.6
2017-11-03T02:07:20.610Z,32.6
2017-11-03T02:08:21.757Z,32.6
2017-11-03T02:09:21.875Z,32.6
2017-11-03T02:10:21.904Z,32.6
2017-11-03T02:11:20.836Z,32.6
2017-11-03T02:12:20.689Z,32.6
2017-11-03T02:13:20.943Z,32.6
2017-11-03T02:14:21.039Z,32.6
2017-11-03T02:15:22.152Z,32.6
2017-11-03T02:16:21.126Z,32.6
2017-11-03T02:17:21.106Z,32.5
2017-11-03T02:18:22.313Z,32.5
2017-11-03T02:19:21.115Z,32.6
2017-11-03T02:20:22.249Z,32.6
2017-11-03T02:21:21.165Z,32.6
2017-11-03T02:22:22.454Z,32.6
2017-11-03T02:23:22.466Z,32.6
2017-11-03T02:24:22.378Z,32.6
2017-11-03T02:25:21.505Z,32.6
2017-11-03T02:26:21.517Z,32.6
2017-11-03T02:27:21.381Z,32.6
2017-11-03T02:28:22.494Z,32.6
2017-11-03T02:29:22.534Z,32.6
2017-11-03T02:30:21.491Z,32.6
2017-11-03T02:31:22.620Z,32.6
2017-11-03T02:32:22.736Z,32.6
2017-11-03T02:33:22.954Z,32.6
2017-11-03T02:34:21.952Z,32.6
2017-11-03T02:35:22.869Z,32.6
2017-11-03T02:36:21.784Z,32.6
2017-11-03T02:37:22.044Z,32.6
2017-11-03T02:38:22.113Z,32.6
2017-11-03T02:39:22.198Z,32.6
2017-11-03T02:40:23.131Z,32.6
2017-11-03T02:41:22.302Z,32.6
2017-11-03T02:42:22.199Z,32.6
2017-11-03T02:43:23.478Z,32.6
2017-11-03T02:44:23.312Z,32.6
2017-11-03T02:45:23.360Z,32.6
2017-11-03T02:46:22.491Z,32.6
2017-11-03T02:47:22.338Z,32.6
2017-11-03T02:48:22.398Z,32.6
2017-11-03T02:49:23.548Z,32.6
2017-11-03T02:50:23.543Z,32.6
2017-11-03T02:51:22.530Z,32.6
2017-11-03T02:52:22.766Z,32.6
2017-11-03T02:53:22.878Z,32.6
2017-11-03T02:54:23.968Z,32.6
2017-11-03T02:55:22.946Z,32.6
2017-11-03T02:56:22.983Z,32.6
2017-11-03T02:57:23.031Z,32.6
2017-11-03T02:58:23.971Z,32.6
2017-11-03T02:59:23.136Z,32.6
2017-11-03T03:00:22.951Z,32.6
2017-11-03T03:01:24.110Z,32.6
2017-11-03T03:02:23.184Z,32.6
2017-11-03T03:03:23.225Z,32.6
2017-11-03T03:04:24.089Z,32.6
2017-11-03T03:05:24.342Z,32.6
2017-11-03T03:06:23.109Z,32.6
2017-11-03T03:07:23.198Z,32.6
2017-11-03T03:08:24.448Z,32.6
2017-11-03T03:09:23.459Z,32.6
2017-11-03T03:10:23.518Z,32.6
2017-11-03T03:11:24.467Z,32.6
2017-11-03T03:12:23.587Z,32.6
2017-11-03T03:13:24.727Z,32.6
2017-11-03T03:14:24.806Z,32.6
2017-11-03T03:15:24.848Z,32.6
2017-11-03T03:16:23.573Z,32.6
2017-11-03T03:17:24.930Z,32.6
2017-11-03T03:18:24.983Z,32.6
2017-11-03T03:19:25.017Z,32.6
2017-11-03T03:20:24.835Z,32.6
2017-11-03T03:21:24.916Z,32.6
2017-11-03T03:22:24.943Z,32.6
2017-11-03T03:23:23.893Z,32.6
2017-11-03T03:24:23.977Z,32.6
2017-11-03T03:25:24.048Z,32.6
2017-11-03T03:26:25.408Z,32.6
2017-11-03T03:27:25.235Z,32.6
2017-11-03T03:28:25.552Z,32.6
2017-11-03T03:29:25.587Z,32.6
2017-11-03T03:30:25.425Z,32.6
2017-11-03T03:31:24.349Z,32.6
2017-11-03T03:32:24.603Z,32.6
2017-11-03T03:33:24.672Z,32.6
2017-11-03T03:34:25.584Z,32.6
2017-11-03T03:35:25.606Z,32.6
2017-11-03T03:36:24.539Z,32.6
2017-11-03T03:37:24.601Z,32.6
2017-11-03T03:38:24.675Z,32.6
2017-11-03T03:39:24.952Z,32.6
2017-11-03T03:40:24.757Z,32.6
2017-11-03T03:41:25.925Z,32.6
2017-11-03T03:42:24.898Z,32.6
2017-11-03T03:43:26.231Z,32.6
2017-11-03T03:44:26.075Z,32.6
2017-11-03T03:45:25.051Z,32.6
2017-11-03T03:46:26.429Z,32.6
2017-11-03T03:47:25.473Z,32.6
2017-11-03T03:48:25.403Z,32.7
2017-11-03T03:49:26.559Z,32.6
2017-11-03T03:50:26.660Z,32.6
2017-11-03T03:51:26.406Z,32.6
2017-11-03T03:52:26.484Z,32.6
2017-11-03T03:53:25.427Z,32.6
2017-11-03T03:54:25.502Z,32.6
2017-11-03T03:55:26.675Z,32.6
2017-11-03T03:56:26.911Z,32.6
2017-11-03T03:57:26.802Z,32.6
2017-11-03T03:58:27.038Z,32.6
2017-11-03T03:59:26.873Z,32.6
2017-11-03T04:00:26.044Z,32.6
2017-11-03T04:01:26.086Z,32.6
2017-11-03T04:02:26.126Z,32.6
2017-11-03T04:03:26.168Z,32.6
2017-11-03T04:04:27.056Z,32.6
2017-11-03T04:05:26.033Z,32.6
2017-11-03T04:06:26.300Z,32.6
2017-11-03T04:07:27.451Z,32.6
2017-11-03T04:08:26.201Z,32.6
2017-11-03T04:09:27.358Z,32.6
2017-11-03T04:10:27.439Z,32.6
2017-11-03T04:11:27.512Z,32.6
2017-11-03T04:12:26.737Z,32.6
2017-11-03T04:13:26.538Z,32.6
2017-11-03T04:14:27.901Z,32.6
2017-11-03T04:15:26.807Z,32.6
2017-11-03T04:16:27.734Z,32.6
2017-11-03T04:17:26.937Z,32.6
2017-11-03T04:18:26.713Z,32.6
2017-11-03T04:19:27.869Z,32.6
2017-11-03T04:20:27.025Z,32.6
2017-11-03T04:21:26.871Z,32.6
2017-11-03T04:22:27.094Z,32.6
2017-11-03T04:23:27.985Z,32.6
2017-11-03T04:24:26.894Z,32.6
2017-11-03T04:25:27.161Z,32.6
2017-11-03T04:26:28.343Z,32.6
2017-11-03T04:27:28.362Z,32.6
2017-11-03T04:28:27.178Z,32.6
2017-11-03T04:29:28.384Z,32.6
2017-11-03T04:30:28.536Z,32.6
2017-11-03T04:31:27.489Z,32.6
2017-11-03T04:32:27.335Z,32.6
2017-11-03T04:33:27.546Z,32.4
2017-11-03T04:34:28.710Z,32.3
2017-11-03T04:35:28.754Z,32.1
2017-11-03T04:36:28.813Z,32
2017-11-03T04:37:28.830Z,32
2017-11-03T04:38:27.632Z,31.9
2017-11-03T04:39:28.976Z,31.8
2017-11-03T04:40:28.799Z,31.9
2017-11-03T04:41:27.748Z,32.2
2017-11-03T04:42:28.893Z,32.6
2017-11-03T04:43:28.951Z,32.7
2017-11-03T04:44:29.149Z,33.1
2017-11-03T04:45:28.920Z,33.5
2017-11-03T04:46:27.988Z,33.9
2017-11-03T04:47:28.055Z,34.1
2017-11-03T04:48:28.335Z,34.4
2017-11-03T04:49:29.226Z,34.6
2017-11-03T04:50:28.433Z,34.7
2017-11-03T04:51:29.326Z,34.7
2017-11-03T04:52:29.536Z,34.8
2017-11-03T04:53:29.444Z,34.9
2017-11-03T04:54:28.360Z,34.9
2017-11-03T04:55:29.725Z,34.9
2017-11-03T04:56:28.458Z,34.9
2017-11-03T04:57:28.565Z,35
2017-11-03T04:58:29.639Z,35
2017-11-03T04:59:28.610Z,35
2017-11-03T05:00:29.754Z,35
2017-11-03T05:01:29.792Z,35
2017-11-03T05:02:28.926Z,35
2017-11-03T05:03:29.034Z,35
2017-11-03T05:04:30.247Z,35
2017-11-03T05:05:29.144Z,35
2017-11-03T05:06:29.204Z,35
2017-11-03T05:07:30.362Z,35
2017-11-03T05:08:29.144Z,35
2017-11-03T05:09:30.472Z,34.9
2017-11-03T05:10:29.236Z,34.9
2017-11-03T05:11:29.276Z,34.9
2017-11-03T05:12:29.428Z,34.9
2017-11-03T05:13:29.534Z,34.9
2017-11-03T05:14:29.377Z,34.9
2017-11-03T05:15:30.442Z,34.8
2017-11-03T05:16:30.664Z,34.8
2017-11-03T05:17:29.467Z,34.8
2017-11-03T05:18:29.722Z,34.8
2017-11-03T05:19:29.569Z,34.8
2017-11-03T05:20:29.858Z,34.8
2017-11-03T05:21:29.856Z,34.7
2017-11-03T05:22:30.938Z,34.7
2017-11-03T05:23:30.758Z,34.7
2017-11-03T05:24:29.931Z,34.7
2017-11-03T05:25:29.792Z,34.7
2017-11-03T05:26:29.948Z,34.7
2017-11-03T05:27:32.423Z,34.6
2017-11-03T05:28:31.392Z,34.6
2017-11-03T05:29:31.628Z,34.6
2017-11-03T05:30:30.029Z,34.6
2017-11-03T05:31:31.349Z,34.6
2017-11-03T05:32:30.094Z,34.6
2017-11-03T05:33:31.215Z,34.6
2017-11-03T05:34:31.375Z,34.6
2017-11-03T05:35:31.393Z,34.5
2017-11-03T05:36:31.455Z,34.5
2017-11-03T05:37:31.749Z,34.5
2017-11-03T05:38:30.715Z,34.5
2017-11-03T05:39:31.610Z,34.5
2017-11-03T05:40:30.807Z,34.5
2017-11-03T05:41:30.863Z,34.5
2017-11-03T05:42:31.819Z,34.5
2017-11-03T05:43:31.846Z,34.4
2017-11-03T05:44:31.175Z,34.4
2017-11-03T05:45:30.947Z,34.4
2017-11-03T05:46:31.219Z,34.4
2017-11-03T05:47:31.304Z,34.4
2017-11-03T05:48:31.413Z,34.4
2017-11-03T05:49:32.293Z,34.3
2017-11-03T05:50:31.464Z,34.3
2017-11-03T05:51:32.343Z,34.3
2017-11-03T05:52:31.612Z,34.2
2017-11-03T05:53:31.697Z,34.2
2017-11-03T05:54:31.779Z,34.1
2017-11-03T05:55:31.809Z,34.1
2017-11-03T05:56:31.685Z,34.1
2017-11-03T05:57:32.816Z,34
2017-11-03T05:58:31.737Z,34
2017-11-03T05:59:31.974Z,34
2017-11-03T06:00:32.976Z,34
2017-11-03T06:01:33.220Z,34
2017-11-03T06:02:32.012Z,33.9
2017-11-03T06:03:32.065Z,34
2017-11-03T06:04:33.212Z,33.9
2017-11-03T06:05:32.365Z,33.9
2017-11-03T06:06:33.233Z,33.9
2017-11-03T06:07:32.249Z,33.9
2017-11-03T06:08:32.519Z,33.9
2017-11-03T06:09:33.654Z,33.9
2017-11-03T06:10:33.547Z,33.9
2017-11-03T06:11:32.683Z,33.8
2017-11-03T06:12:32.564Z,33.8
2017-11-03T06:13:33.643Z,33.8
2017-11-03T06:14:32.594Z,33.8
2017-11-03T06:15:32.882Z,33.7
2017-11-03T06:16:33.999Z,33.7
2017-11-03T06:17:32.964Z,33.7
2017-11-03T06:18:32.978Z,33.7
2017-11-03T06:19:32.744Z,33.7
2017-11-03T06:20:32.815Z,33.7
2017-11-03T06:21:33.079Z,33.7
2017-11-03T06:22:34.177Z,33.7
2017-11-03T06:23:32.918Z,33.7
2017-11-03T06:24:34.226Z,33.7
2017-11-03T06:25:33.997Z,33.7
2017-11-03T06:26:34.053Z,33.6
2017-11-03T06:27:34.058Z,33.6
2017-11-03T06:28:34.389Z,33.6
2017-11-03T06:29:33.364Z,33.6
2017-11-03T06:30:34.500Z,33.6
2017-11-03T06:31:34.575Z,33.6
2017-11-03T06:32:34.450Z,33.6
2017-11-03T06:33:34.669Z,33.6
2017-11-03T06:34:34.708Z,33.6
2017-11-03T06:35:33.404Z,33.6
2017-11-03T06:36:33.476Z,33.6
2017-11-03T06:37:34.855Z,33.6
2017-11-03T06:38:34.990Z,33.6
2017-11-03T06:39:33.901Z,33.5
2017-11-03T06:40:33.738Z,33.5
2017-11-03T06:41:34.953Z,33.5
2017-11-03T06:42:34.090Z,33.5
2017-11-03T06:43:33.955Z,33.5
2017-11-03T06:44:33.943Z,33.5
2017-11-03T06:45:34.334Z,33.5
2017-11-03T06:46:35.254Z,33.5
2017-11-03T06:47:34.206Z,33.5
2017-11-03T06:48:34.508Z,33.5
2017-11-03T06:49:34.346Z,33.5
2017-11-03T06:50:35.632Z,33.4
2017-11-03T06:51:35.464Z,33.5
2017-11-03T06:52:34.326Z,33.5
2017-11-03T06:53:34.442Z,33.4
2017-11-03T06:54:35.551Z,33.4
2017-11-03T06:55:35.858Z,33.4
2017-11-03T06:56:34.710Z,33.4
2017-11-03T06:57:35.710Z,33.4
2017-11-03T06:58:34.898Z,33.1
2017-11-03T06:59:35.819Z,33.2
2017-11-03T07:00:35.830Z,33.3
2017-11-03T07:01:34.931Z,33.5
2017-11-03T07:02:34.967Z,33.7
2017-11-03T07:03:35.070Z,34
2017-11-03T07:04:36.198Z,34.3
2017-11-03T07:05:36.097Z,34.6
2017-11-03T07:06:34.998Z,34.8
2017-11-03T07:07:36.401Z,34.9
2017-11-03T07:08:36.387Z,35.1
2017-11-03T07:09:36.194Z,35.4
2017-11-03T07:10:35.170Z,35.6
2017-11-03T07:11:35.286Z,35.8
2017-11-03T07:12:35.276Z,35.9
2017-11-03T07:13:36.606Z,36.1
2017-11-03T07:14:36.607Z,36.2
2017-11-03T07:15:36.492Z,36.3
2017-11-03T07:16:36.524Z,36.4
2017-11-03T07:17:36.633Z,36.5
2017-11-03T07:18:36.683Z,36.6
2017-11-03T07:19:36.917Z,36.8
2017-11-03T07:20:36.808Z,36.8
2017-11-03T07:21:35.727Z,36.8
2017-11-03T07:22:35.725Z,36.8
2017-11-03T07:23:36.864Z,36.9
2017-11-03T07:24:37.172Z,36.9
2017-11-03T07:25:37.132Z,37
2017-11-03T07:26:36.022Z,37.1
2017-11-03T07:27:36.255Z,37.1
2017-11-03T07:28:37.411Z,37.1
2017-11-03T07:29:37.446Z,37.1
2017-11-03T07:30:36.190Z,37.3
2017-11-03T07:31:37.559Z,37.4
2017-11-03T07:32:36.474Z,37.4
2017-11-03T07:33:36.358Z,37.5
2017-11-03T07:34:37.721Z,37.5
2017-11-03T07:35:36.639Z,37.6
2017-11-03T07:36:36.482Z,37.7
2017-11-03T07:37:37.803Z,37.8
2017-11-03T07:38:37.642Z,37.9
2017-11-03T07:39:36.730Z,37.9
2017-11-03T07:40:36.855Z,38
2017-11-03T07:41:36.881Z,38.1
2017-11-03T07:42:37.874Z,38.2
2017-11-03T07:43:38.103Z,38.2
2017-11-03T07:44:38.198Z,38.3
2017-11-03T07:45:37.195Z,38.3
2017-11-03T07:46:37.024Z,38.4
2017-11-03T07:47:37.372Z,38.4
2017-11-03T07:48:38.461Z,38.5
2017-11-03T07:49:37.560Z,38.5
2017-11-03T07:50:38.317Z,38.5
2017-11-03T07:51:37.421Z,38.6
2017-11-03T07:52:38.353Z,38.6
2017-11-03T07:53:38.482Z,38.7
2017-11-03T07:54:37.382Z,38.7
2017-11-03T07:55:37.594Z,38.7
2017-11-03T07:56:38.739Z,38.8
2017-11-03T07:57:38.739Z,38.8
2017-11-03T07:58:38.875Z,38.8
2017-11-03T07:59:38.959Z,38.8
2017-11-03T08:00:37.711Z,38.9
2017-11-03T08:01:37.701Z,38.9
2017-11-03T08:02:37.993Z,38.9
2017-11-03T08:03:38.844Z,38.9
2017-11-03T08:04:39.133Z,38.9
2017-11-03T08:05:37.905Z,38.9
2017-11-03T08:06:37.895Z,39
2017-11-03T08:07:37.943Z,39
2017-11-03T08:08:38.232Z,39
2017-11-03T08:09:39.087Z,39
2017-11-03T08:10:38.718Z,39
2017-11-03T08:11:39.502Z,39
2017-11-03T08:12:38.237Z,39
2017-11-03T08:13:39.333Z,39
2017-11-03T08:14:39.682Z,39.1
2017-11-03T08:15:39.029Z,39.1
2017-11-03T08:16:38.735Z,39.1
2017-11-03T08:17:38.688Z,39.1
2017-11-03T08:18:39.674Z,39.1
2017-11-03T08:19:38.774Z,39.3
2017-11-03T08:20:39.691Z,39.2
2017-11-03T08:21:38.813Z,39.3
2017-11-03T08:22:38.829Z,39.3
2017-11-03T08:23:40.055Z,39.3
2017-11-03T08:24:38.954Z,39.4
2017-11-03T08:25:39.973Z,39.4
2017-11-03T08:26:38.982Z,39.4
2017-11-03T08:27:39.329Z,39.4
2017-11-03T08:28:40.279Z,39.4
2017-11-03T08:29:40.290Z,39.4
2017-11-03T08:30:39.483Z,39.5
2017-11-03T08:31:39.602Z,39.5
2017-11-03T08:32:40.513Z,39.5
2017-11-03T08:33:39.603Z,39.6
2017-11-03T08:34:40.463Z,39.6
2017-11-03T08:35:39.780Z,39.5
2017-11-03T08:36:40.843Z,39.5
2017-11-03T08:37:39.720Z,39.5
2017-11-03T08:38:39.583Z,39.5
2017-11-03T08:39:40.964Z,39.5
2017-11-03T08:40:41.079Z,39.5
2017-11-03T08:41:40.882Z,39.6
2017-11-03T08:42:39.879Z,39.6
2017-11-03T08:43:39.884Z,39.6
2017-11-03T08:44:40.160Z,39.6
2017-11-03T08:45:41.134Z,39.6
2017-11-03T08:46:40.310Z,39.6
2017-11-03T08:47:40.410Z,39.6
2017-11-03T08:48:41.535Z,39.6
2017-11-03T08:49:40.526Z,39.6
2017-11-03T08:50:41.584Z,39.6
2017-11-03T08:51:40.643Z,39.6
2017-11-03T08:52:41.580Z,39.6
2017-11-03T08:53:41.671Z,39.6
2017-11-03T08:54:42.093Z,39.6
2017-11-03T08:55:42.137Z,39.6
2017-11-03T08:56:40.744Z,39.7
2017-11-03T08:57:40.981Z,39.7
2017-11-03T08:58:42.179Z,39.7
2017-11-03T08:59:42.057Z,39.7
2017-11-03T09:00:41.180Z,39.7
2017-11-03T09:01:41.236Z,39.7
2017-11-03T09:02:42.176Z,39.7
2017-11-03T09:03:42.421Z,39.6
2017-11-03T09:04:41.584Z,39.6
2017-11-03T09:05:41.513Z,39.6
2017-11-03T09:06:42.425Z,39.7
2017-11-03T09:07:41.653Z,39.6
2017-11-03T09:08:41.490Z,39.6
2017-11-03T09:09:42.761Z,39.7
2017-11-03T09:10:42.726Z,39.7
2017-11-03T09:11:42.915Z,39.7
2017-11-03T09:12:42.784Z,39.7
2017-11-03T09:13:42.112Z,39.6
2017-11-03T09:14:42.951Z,39.6
2017-11-03T09:15:43.173Z,39.6
2017-11-03T09:16:43.017Z,39.6
2017-11-03T09:17:43.301Z,39.7
2017-11-03T09:18:43.306Z,39.6
2017-11-03T09:19:42.104Z,39.6
2017-11-03T09:20:43.401Z,39.6
2017-11-03T09:21:43.469Z,39.6
2017-11-03T09:22:43.399Z,39.6
2017-11-03T09:23:43.333Z,39.6
2017-11-03T09:24:42.603Z,39.5
2017-11-03T09:25:43.903Z,39.6
2017-11-03T09:26:42.617Z,39.5
2017-11-03T09:27:43.559Z,39.5
2017-11-03T09:28:43.795Z,39.5
2017-11-03T09:29:43.675Z,39.5
2017-11-03T09:30:43.927Z,39.4
2017-11-03T09:31:42.843Z,39.5
2017-11-03T09:32:42.751Z,39.5
2017-11-03T09:33:43.940Z,39.4
2017-11-03T09:34:43.045Z,39.5
2017-11-03T09:35:43.979Z,39.5
2017-11-03T09:36:44.414Z,39.5
2017-11-03T09:37:44.060Z,39.4
2017-11-03T09:38:43.263Z,39.4
2017-11-03T09:39:44.444Z,39.3
2017-11-03T09:40:43.365Z,39.3
2017-11-03T09:41:44.358Z,39.3
2017-11-03T09:42:43.571Z,39.3
2017-11-03T09:43:44.480Z,39.2
2017-11-03T09:44:43.473Z,39.2
2017-11-03T09:45:43.696Z,39.2
2017-11-03T09:46:44.635Z,39.2
2017-11-03T09:47:43.669Z,39.3
2017-11-03T09:48:45.111Z,39.3
2017-11-03T09:49:43.974Z,39.3
2017-11-03T09:50:44.912Z,39.3
2017-11-03T09:51:44.879Z,39.3
2017-11-03T09:52:45.670Z,39.4
2017-11-03T09:53:44.134Z,39.4
2017-11-03T09:54:44.047Z,39.4
2017-11-03T09:55:44.121Z,39.4
2017-11-03T09:56:45.082Z,39.4
2017-11-03T09:57:44.328Z,39.4
2017-11-03T09:58:45.556Z,39.4
2017-11-03T09:59:44.288Z,39.4
2017-11-03T10:00:45.555Z,39.4
2017-11-03T10:01:44.514Z,39.4
2017-11-03T10:02:45.532Z,39.4
2017-11-03T10:03:44.606Z,39.3
2017-11-03T10:04:45.481Z,39.3
2017-11-03T10:05:45.688Z,39.3
2017-11-03T10:06:45.772Z,39.3
2017-11-03T10:07:45.616Z,39.3
2017-11-03T10:08:45.713Z,39.2
2017-11-03T10:09:45.744Z,39.2
2017-11-03T10:10:44.847Z,39.2
2017-11-03T10:11:44.911Z,39.2
2017-11-03T10:12:45.867Z,39.2
2017-11-03T10:13:44.880Z,39.3
2017-11-03T10:14:46.165Z,39.3
2017-11-03T10:15:44.929Z,39.3
2017-11-03T10:16:45.140Z,39.3
2017-11-03T10:17:44.961Z,39.3
2017-11-03T10:18:47.064Z,39.3
2017-11-03T10:19:45.468Z,39.3
2017-11-03T10:20:46.284Z,39.2
2017-11-03T10:21:46.632Z,39.2
2017-11-03T10:22:45.388Z,39.1
2017-11-03T10:23:45.620Z,39.2
2017-11-03T10:24:46.886Z,39.2
2017-11-03T10:25:46.901Z,39.1
2017-11-03T10:26:45.661Z,39.1
2017-11-03T10:27:45.891Z,39.1
2017-11-03T10:28:46.943Z,39.2
2017-11-03T10:29:47.849Z,39.2
2017-11-03T10:30:45.899Z,39.1
2017-11-03T10:31:46.695Z,39.1
2017-11-03T10:32:46.034Z,39.1
2017-11-03T10:33:47.537Z,39.1
2017-11-03T10:34:47.414Z,39.1
2017-11-03T10:35:47.880Z,39.1
2017-11-03T10:36:46.497Z,39.1
2017-11-03T10:37:48.030Z,39.2
2017-11-03T10:38:46.225Z,39.1
2017-11-03T10:39:47.543Z,38.9
2017-11-03T10:40:46.336Z,38.8
2017-11-03T10:41:46.374Z,38.6
2017-11-03T10:42:46.756Z,38.4
2017-11-03T10:43:47.800Z,38.1
2017-11-03T10:44:46.824Z,38
2017-11-03T10:45:47.600Z,37.8
2017-11-03T10:46:46.577Z,37.6
2017-11-03T10:47:46.689Z,37.4
2017-11-03T10:48:46.885Z,37.3
2017-11-03T10:49:46.737Z,37.1
2017-11-03T10:50:47.897Z,37
2017-11-03T10:51:47.985Z,36.8
2017-11-03T10:52:47.928Z,36.7
2017-11-03T10:53:46.998Z,36.6
2017-11-03T10:54:48.027Z,36.5
2017-11-03T10:55:48.322Z,36.4
2017-11-03T10:56:48.156Z,36.2
2017-11-03T10:57:47.136Z,36.1
2017-11-03T10:58:47.128Z,36.1
2017-11-03T10:59:47.251Z,36
2017-11-03T11:00:48.541Z,35.9
2017-11-03T11:01:48.423Z,35.8
2017-11-03T11:02:48.565Z,35.7
2017-11-03T11:03:48.388Z,35.6
2017-11-03T11:04:47.298Z,35.6
2017-11-03T11:05:48.594Z,35.5
2017-11-03T11:06:48.676Z,35.5
2017-11-03T11:07:48.397Z,35.4
2017-11-03T11:08:47.693Z,35.4
2017-11-03T11:09:47.502Z,35.4
2017-11-03T11:10:48.049Z,35.3
2017-11-03T11:11:47.604Z,35.2
2017-11-03T11:12:47.825Z,35.1
2017-11-03T11:13:47.709Z,35.1
2017-11-03T11:14:49.059Z,35
2017-11-03T11:15:47.971Z,34.9
2017-11-03T11:16:48.971Z,34.9
2017-11-03T11:17:49.048Z,34.8
2017-11-03T11:18:49.358Z,34.8
2017-11-03T11:19:49.574Z,34.7
2017-11-03T11:20:48.388Z,34.6
2017-11-03T11:21:49.395Z,34.6
2017-11-03T11:22:48.521Z,34.5
2017-11-03T11:23:49.649Z,34.4
2017-11-03T11:24:48.456Z,34.4
2017-11-03T11:25:48.761Z,34.3
2017-11-03T11:26:48.841Z,34.3
2017-11-03T11:27:50.008Z,34.2
2017-11-03T11:28:49.894Z,34.2
2017-11-03T11:29:50.118Z,34.1
2017-11-03T11:30:49.085Z,34.1
2017-11-03T11:31:50.201Z,34
2017-11-03T11:32:48.953Z,34
2017-11-03T11:33:50.272Z,34
2017-11-03T11:34:50.318Z,33.9
2017-11-03T11:35:49.070Z,33.9
2017-11-03T11:36:50.420Z,33.9
2017-11-03T11:37:49.134Z,33.8
2017-11-03T11:38:50.481Z,33.8
2017-11-03T11:39:49.266Z,33.7
2017-11-03T11:40:50.564Z,33.7
2017-11-03T11:41:49.479Z,33.6
2017-11-03T11:42:50.443Z,33.6
2017-11-03T11:43:49.408Z,33.5
2017-11-03T11:44:50.743Z,33.4
2017-11-03T11:45:50.556Z,33.2
2017-11-03T11:46:49.537Z,33
2017-11-03T11:47:50.703Z,32.8
2017-11-03T11:48:49.661Z,32.7
2017-11-03T11:49:50.697Z,32.5
2017-11-03T11:50:49.811Z,32.5
2017-11-03T11:51:50.841Z,32.4
2017-11-03T11:52:49.748Z,32.5
2017-11-03T11:53:50.855Z,32.5
2017-11-03T11:54:50.965Z,32.6
2017-11-03T11:55:50.979Z,32.6
2017-11-03T11:56:50.038Z,32.7
2017-11-03T11:57:51.285Z,32.8
2017-11-03T11:58:51.451Z,32.9
2017-11-03T11:59:50.393Z,32.9
2017-11-03T12:00:51.541Z,32.9
2017-11-03T12:01:51.321Z,32.9
2017-11-03T12:02:50.393Z,33
2017-11-03T12:03:50.364Z,33
2017-11-03T12:04:50.645Z,33
2017-11-03T12:05:51.526Z,33
2017-11-03T12:06:50.806Z,33.1
2017-11-03T12:07:51.638Z,33.1
2017-11-03T12:08:51.784Z,33.1
2017-11-03T12:09:50.768Z,33.1
2017-11-03T12:10:52.053Z,33.1
2017-11-03T12:11:52.111Z,33.1
2017-11-03T12:12:52.130Z,33.1
2017-11-03T12:13:51.995Z,33
2017-11-03T12:14:52.203Z,33
2017-11-03T12:15:50.912Z,32.9
2017-11-03T12:16:52.269Z,32.8
2017-11-03T12:17:52.114Z,32.6
2017-11-03T12:18:52.351Z,32.5
2017-11-03T12:19:52.473Z,32.4
2017-11-03T12:20:52.510Z,32.4
2017-11-03T12:21:51.463Z,32.3
2017-11-03T12:22:51.360Z,32.2
2017-11-03T12:23:52.446Z,32.1
2017-11-03T12:24:51.439Z,31.9
2017-11-03T12:25:51.420Z,31.8
2017-11-03T12:26:51.678Z,31.6
2017-11-03T12:27:52.786Z,31.5
2017-11-03T12:28:51.617Z,31.4
2017-11-03T12:29:52.883Z,31.2
2017-11-03T12:30:52.044Z,31
2017-11-03T12:31:52.067Z,30.8
2017-11-03T12:32:52.920Z,30.6
2017-11-03T12:33:53.021Z,30.5
2017-11-03T12:34:52.219Z,30.4
2017-11-03T12:35:53.392Z,30.3
2017-11-03T12:36:52.432Z,30.2
2017-11-03T12:37:52.412Z,30.2
2017-11-03T12:38:52.283Z,30.2
2017-11-03T12:39:53.612Z,30.2
2017-11-03T12:40:53.548Z,30.3
2017-11-03T12:41:52.476Z,30.4
2017-11-03T12:42:52.628Z,30.4
2017-11-03T12:43:53.737Z,30.5
2017-11-03T12:44:52.862Z,30.6
2017-11-03T12:45:52.722Z,30.6
2017-11-03T12:49:34.009Z,30.8
2017-11-03T12:50:35.358Z,30.8
2017-11-03T12:51:34.305Z,30.8
2017-11-03T12:52:34.390Z,30.8
2017-11-03T12:53:34.472Z,30.8
2017-11-03T12:54:35.577Z,30.8
2017-11-03T12:55:34.411Z,30.8
2017-11-03T12:56:34.617Z,30.8
2017-11-03T12:57:35.485Z,30.7
2017-11-03T12:58:35.724Z,30.5
2017-11-03T12:59:34.728Z,30.4
2017-11-03T13:00:35.748Z,30.1
2017-11-03T13:01:34.676Z,29.7
2017-11-03T13:02:34.914Z,29.5
2017-11-03T13:03:34.839Z,29.3
2017-11-03T13:04:36.152Z,29.2
2017-11-03T13:05:36.240Z,29.2
2017-11-03T13:06:36.109Z,29.2
2017-11-03T13:07:36.505Z,29.3
2017-11-03T13:08:36.208Z,29.2
2017-11-03T13:09:44.757Z,29.2
2017-11-03T13:10:39.888Z,28.9
2017-11-03T13:11:38.229Z,28.7
2017-11-03T13:12:35.366Z,28.5
2017-11-03T13:13:35.934Z,28.5
2017-11-03T13:14:35.574Z,28.2
2017-11-03T13:15:36.807Z,28.1
2017-11-03T13:16:36.876Z,28.1
2017-11-03T13:17:36.716Z,28.2
2017-11-03T13:18:35.980Z,28.3
2017-11-03T13:19:36.867Z,28.2
2017-11-03T13:20:36.086Z,27.9
2017-11-03T13:21:37.235Z,27.7
2017-11-03T13:22:37.113Z,27.5
2017-11-03T13:23:37.329Z,27.3
2017-11-03T13:24:36.088Z,27.1